sensor_id;sensor_type;location;lat;lon;timestamp;P1;durP1;ratioP1;P2;durP2;ratioP2
18338;SDS011;9295;44.484;11.240;2022-07-29T00:01:40;10.90;;;5.90;;
18338;SDS011;9295;44.484;11.240;2022-07-29T00:04:11;8.07;;;6.00;;
18338;SDS011;9295;44.484;11.240;2022-07-29T00:06:42;9.03;;;6.03;;
18338;SDS011;9295;44.484;11.240;2022-07-29T00:09:10;10.20;;;5.97;;
18338;SDS011;9295;44.484;11.240;2022-07-29T00:11:39;9.30;;;5.90;;
18338;SDS011;9295;44.484;11.240;2022-07-29T00:14:08;9.60;;;6.07;;
18338;SDS011;9295;44.484;11.240;2022-07-29T00:16:37;12.80;;;6.23;;
18338;SDS011;9295;44.484;11.240;2022-07-29T00:19:08;12.43;;;6.67;;
18338;SDS011;9295;44.484;11.240;2022-07-29T00:21:38;10.40;;;5.30;;
18338;SDS011;9295;44.484;11.240;2022-07-29T00:24:09;9.40;;;6.17;;
18338;SDS011;9295;44.484;11.240;2022-07-29T00:26:38;8.97;;;5.70;;
18338;SDS011;9295;44.484;11.240;2022-07-29T00:29:07;16.17;;;6.50;;
18338;SDS011;9295;44.484;11.240;2022-07-29T00:31:55;8.00;;;6.60;;
18338;SDS011;9295;44.484;11.240;2022-07-29T00:34:24;9.07;;;6.40;;
18338;SDS011;9295;44.484;11.240;2022-07-29T00:37:10;12.13;;;6.07;;
18338;SDS011;9295;44.484;11.240;2022-07-29T00:39:42;8.03;;;5.90;;
18338;SDS011;9295;44.484;11.240;2022-07-29T00:42:11;9.83;;;6.13;;
18338;SDS011;9295;44.484;11.240;2022-07-29T00:44:40;8.27;;;5.90;;
18338;SDS011;9295;44.484;11.240;2022-07-29T00:47:09;10.53;;;6.10;;
18338;SDS011;9295;44.484;11.240;2022-07-29T00:49:39;12.83;;;5.87;;
18338;SDS011;9295;44.484;11.240;2022-07-29T00:52:09;13.23;;;6.23;;
18338;SDS011;9295;44.484;11.240;2022-07-29T00:54:43;10.27;;;6.20;;
18338;SDS011;9295;44.484;11.240;2022-07-29T00:57:12;9.77;;;6.30;;
18338;SDS011;9295;44.484;11.240;2022-07-29T00:59:41;11.27;;;6.53;;
18338;SDS011;9295;44.484;11.240;2022-07-29T01:02:10;11.40;;;7.30;;
18338;SDS011;9295;44.484;11.240;2022-07-29T01:04:39;12.30;;;7.50;;
18338;SDS011;9295;44.484;11.240;2022-07-29T01:07:09;11.43;;;7.30;;
18338;SDS011;9295;44.484;11.240;2022-07-29T01:09:38;11.77;;;7.97;;
18338;SDS011;9295;44.484;11.240;2022-07-29T01:12:13;10.67;;;7.20;;
18338;SDS011;9295;44.484;11.240;2022-07-29T01:14:45;9.87;;;7.93;;
18338;SDS011;9295;44.484;11.240;2022-07-29T01:17:17;17.80;;;13.53;;
18338;SDS011;9295;44.484;11.240;2022-07-29T01:19:51;10.80;;;7.90;;
18338;SDS011;9295;44.484;11.240;2022-07-29T01:22:31;10.07;;;6.73;;
18338;SDS011;9295;44.484;11.240;2022-07-29T01:28:07;10.10;;;6.97;;
18338;SDS011;9295;44.484;11.240;2022-07-29T01:30:52;11.00;;;7.23;;
18338;SDS011;9295;44.484;11.240;2022-07-29T01:33:23;8.37;;;5.93;;
18338;SDS011;9295;44.484;11.240;2022-07-29T01:36:11;9.97;;;7.10;;
18338;SDS011;9295;44.484;11.240;2022-07-29T01:38:45;10.80;;;6.70;;
18338;SDS011;9295;44.484;11.240;2022-07-29T01:41:22;10.43;;;7.00;;
18338;SDS011;9295;44.484;11.240;2022-07-29T01:43:53;10.27;;;7.63;;
18338;SDS011;9295;44.484;11.240;2022-07-29T01:46:30;10.17;;;6.60;;
18338;SDS011;9295;44.484;11.240;2022-07-29T01:49:06;8.40;;;6.40;;
18338;SDS011;9295;44.484;11.240;2022-07-29T01:51:40;7.40;;;5.90;;
18338;SDS011;9295;44.484;11.240;2022-07-29T01:54:14;9.20;;;6.50;;
18338;SDS011;9295;44.484;11.240;2022-07-29T01:56:49;8.97;;;6.30;;
18338;SDS011;9295;44.484;11.240;2022-07-29T01:59:19;8.00;;;6.60;;
18338;SDS011;9295;44.484;11.240;2022-07-29T02:01:52;13.10;;;7.10;;
18338;SDS011;9295;44.484;11.240;2022-07-29T02:04:26;9.00;;;6.13;;
18338;SDS011;9295;44.484;11.240;2022-07-29T02:06:57;11.53;;;6.60;;
18338;SDS011;9295;44.484;11.240;2022-07-29T02:09:32;10.60;;;6.20;;
18338;SDS011;9295;44.484;11.240;2022-07-29T02:12:03;9.73;;;6.30;;
18338;SDS011;9295;44.484;11.240;2022-07-29T02:14:36;9.63;;;6.73;;
18338;SDS011;9295;44.484;11.240;2022-07-29T02:17:07;17.70;;;6.73;;
18338;SDS011;9295;44.484;11.240;2022-07-29T02:19:36;10.70;;;6.70;;
18338;SDS011;9295;44.484;11.240;2022-07-29T02:22:06;9.57;;;6.20;;
18338;SDS011;9295;44.484;11.240;2022-07-29T02:24:36;16.90;;;7.00;;
18338;SDS011;9295;44.484;11.240;2022-07-29T02:27:07;8.97;;;6.30;;
18338;SDS011;9295;44.484;11.240;2022-07-29T02:29:37;14.60;;;6.23;;
18338;SDS011;9295;44.484;11.240;2022-07-29T02:32:09;10.03;;;6.53;;
18338;SDS011;9295;44.484;11.240;2022-07-29T02:34:41;7.50;;;6.10;;
18338;SDS011;9295;44.484;11.240;2022-07-29T02:37:11;9.33;;;6.53;;
18338;SDS011;9295;44.484;11.240;2022-07-29T02:39:42;9.20;;;6.03;;
18338;SDS011;9295;44.484;11.240;2022-07-29T02:42:13;10.00;;;6.40;;
18338;SDS011;9295;44.484;11.240;2022-07-29T02:44:44;8.00;;;6.23;;
18338;SDS011;9295;44.484;11.240;2022-07-29T02:47:15;8.70;;;5.77;;
18338;SDS011;9295;44.484;11.240;2022-07-29T02:49:48;12.60;;;6.53;;
18338;SDS011;9295;44.484;11.240;2022-07-29T02:52:26;9.80;;;6.10;;
18338;SDS011;9295;44.484;11.240;2022-07-29T02:54:59;8.63;;;6.00;;
18338;SDS011;9295;44.484;11.240;2022-07-29T02:57:31;8.60;;;6.20;;
18338;SDS011;9295;44.484;11.240;2022-07-29T03:00:21;9.37;;;6.57;;
18338;SDS011;9295;44.484;11.240;2022-07-29T03:02:52;12.03;;;6.47;;
18338;SDS011;9295;44.484;11.240;2022-07-29T03:05:23;10.03;;;6.83;;
18338;SDS011;9295;44.484;11.240;2022-07-29T03:07:55;11.27;;;6.60;;
18338;SDS011;9295;44.484;11.240;2022-07-29T03:10:29;8.40;;;6.67;;
18338;SDS011;9295;44.484;11.240;2022-07-29T03:12:59;13.77;;;6.40;;
18338;SDS011;9295;44.484;11.240;2022-07-29T03:15:28;7.70;;;6.73;;
18338;SDS011;9295;44.484;11.240;2022-07-29T03:18:00;10.50;;;7.10;;
18338;SDS011;9295;44.484;11.240;2022-07-29T03:20:29;12.60;;;7.10;;
18338;SDS011;9295;44.484;11.240;2022-07-29T03:22:58;9.93;;;7.00;;
18338;SDS011;9295;44.484;11.240;2022-07-29T03:25:30;10.20;;;6.93;;
18338;SDS011;9295;44.484;11.240;2022-07-29T03:27:58;12.53;;;7.73;;
18338;SDS011;9295;44.484;11.240;2022-07-29T03:30:27;9.83;;;7.17;;
18338;SDS011;9295;44.484;11.240;2022-07-29T03:32:57;9.33;;;6.77;;
18338;SDS011;9295;44.484;11.240;2022-07-29T03:35:28;9.37;;;7.40;;
18338;SDS011;9295;44.484;11.240;2022-07-29T03:37:58;13.03;;;6.97;;
18338;SDS011;9295;44.484;11.240;2022-07-29T03:40:27;9.37;;;6.43;;
18338;SDS011;9295;44.484;11.240;2022-07-29T03:43:00;8.20;;;6.07;;
18338;SDS011;9295;44.484;11.240;2022-07-29T03:45:34;8.73;;;6.57;;
18338;SDS011;9295;44.484;11.240;2022-07-29T03:48:07;7.77;;;5.97;;
18338;SDS011;9295;44.484;11.240;2022-07-29T03:50:37;9.03;;;6.07;;
18338;SDS011;9295;44.484;11.240;2022-07-29T03:53:06;8.33;;;6.57;;
18338;SDS011;9295;44.484;11.240;2022-07-29T03:55:36;7.70;;;6.07;;
18338;SDS011;9295;44.484;11.240;2022-07-29T03:58:10;10.80;;;6.80;;
18338;SDS011;9295;44.484;11.240;2022-07-29T04:00:40;7.80;;;6.47;;
18338;SDS011;9295;44.484;11.240;2022-07-29T04:03:11;9.17;;;6.67;;
18338;SDS011;9295;44.484;11.240;2022-07-29T04:05:41;10.70;;;6.73;;
18338;SDS011;9295;44.484;11.240;2022-07-29T04:08:10;10.40;;;5.73;;
18338;SDS011;9295;44.484;11.240;2022-07-29T04:10:38;7.50;;;5.20;;
18338;SDS011;9295;44.484;11.240;2022-07-29T04:13:10;8.70;;;5.70;;
18338;SDS011;9295;44.484;11.240;2022-07-29T04:15:40;11.97;;;6.77;;
18338;SDS011;9295;44.484;11.240;2022-07-29T04:18:09;8.47;;;6.40;;
18338;SDS011;9295;44.484;11.240;2022-07-29T04:20:39;9.53;;;6.43;;
18338;SDS011;9295;44.484;11.240;2022-07-29T04:23:08;8.33;;;6.47;;
18338;SDS011;9295;44.484;11.240;2022-07-29T04:25:37;9.50;;;6.07;;
18338;SDS011;9295;44.484;11.240;2022-07-29T04:28:06;10.33;;;6.10;;
18338;SDS011;9295;44.484;11.240;2022-07-29T04:30:36;9.77;;;6.27;;
18338;SDS011;9295;44.484;11.240;2022-07-29T04:33:07;10.20;;;6.70;;
18338;SDS011;9295;44.484;11.240;2022-07-29T04:35:37;13.23;;;6.17;;
18338;SDS011;9295;44.484;11.240;2022-07-29T04:38:17;8.97;;;6.07;;
18338;SDS011;9295;44.484;11.240;2022-07-29T04:40:46;14.73;;;6.90;;
18338;SDS011;9295;44.484;11.240;2022-07-29T04:43:15;12.07;;;6.10;;
18338;SDS011;9295;44.484;11.240;2022-07-29T04:45:49;9.57;;;5.90;;
18338;SDS011;9295;44.484;11.240;2022-07-29T04:48:18;6.53;;;5.73;;
18338;SDS011;9295;44.484;11.240;2022-07-29T04:50:54;21.10;;;6.73;;
18338;SDS011;9295;44.484;11.240;2022-07-29T04:53:24;7.27;;;5.77;;
18338;SDS011;9295;44.484;11.240;2022-07-29T04:55:53;9.13;;;6.43;;
18338;SDS011;9295;44.484;11.240;2022-07-29T04:58:22;10.60;;;6.13;;
18338;SDS011;9295;44.484;11.240;2022-07-29T05:00:50;10.40;;;5.77;;
18338;SDS011;9295;44.484;11.240;2022-07-29T05:03:21;7.33;;;5.77;;
18338;SDS011;9295;44.484;11.240;2022-07-29T05:05:52;8.03;;;5.60;;
18338;SDS011;9295;44.484;11.240;2022-07-29T05:08:20;14.20;;;6.33;;
18338;SDS011;9295;44.484;11.240;2022-07-29T05:10:50;11.50;;;6.30;;
18338;SDS011;9295;44.484;11.240;2022-07-29T05:13:19;9.43;;;5.33;;
18338;SDS011;9295;44.484;11.240;2022-07-29T05:15:48;8.60;;;6.40;;
18338;SDS011;9295;44.484;11.240;2022-07-29T05:18:16;13.27;;;6.13;;
18338;SDS011;9295;44.484;11.240;2022-07-29T05:20:51;8.17;;;5.93;;
18338;SDS011;9295;44.484;11.240;2022-07-29T05:23:20;12.40;;;6.50;;
18338;SDS011;9295;44.484;11.240;2022-07-29T05:25:48;9.33;;;6.07;;
18338;SDS011;9295;44.484;11.240;2022-07-29T05:28:21;8.43;;;5.43;;
18338;SDS011;9295;44.484;11.240;2022-07-29T05:30:50;9.77;;;6.43;;
18338;SDS011;9295;44.484;11.240;2022-07-29T05:33:19;12.00;;;7.03;;
18338;SDS011;9295;44.484;11.240;2022-07-29T05:36:02;11.07;;;6.47;;
18338;SDS011;9295;44.484;11.240;2022-07-29T05:38:34;9.80;;;6.40;;
18338;SDS011;9295;44.484;11.240;2022-07-29T05:41:03;9.23;;;6.83;;
18338;SDS011;9295;44.484;11.240;2022-07-29T05:43:33;12.57;;;6.80;;
18338;SDS011;9295;44.484;11.240;2022-07-29T05:46:02;19.60;;;6.63;;
18338;SDS011;9295;44.484;11.240;2022-07-29T05:48:31;11.43;;;7.07;;
18338;SDS011;9295;44.484;11.240;2022-07-29T05:51:00;12.03;;;7.80;;
18338;SDS011;9295;44.484;11.240;2022-07-29T05:53:29;8.57;;;7.20;;
18338;SDS011;9295;44.484;11.240;2022-07-29T05:55:57;16.43;;;6.37;;
18338;SDS011;9295;44.484;11.240;2022-07-29T05:58:26;24.90;;;6.90;;
18338;SDS011;9295;44.484;11.240;2022-07-29T06:00:57;11.20;;;6.57;;
18338;SDS011;9295;44.484;11.240;2022-07-29T06:03:27;12.10;;;7.03;;
18338;SDS011;9295;44.484;11.240;2022-07-29T06:05:56;10.70;;;7.37;;
18338;SDS011;9295;44.484;11.240;2022-07-29T06:08:25;11.80;;;6.67;;
18338;SDS011;9295;44.484;11.240;2022-07-29T06:10:54;11.77;;;6.67;;
18338;SDS011;9295;44.484;11.240;2022-07-29T06:13:22;11.37;;;6.90;;
18338;SDS011;9295;44.484;11.240;2022-07-29T06:15:51;13.40;;;6.80;;
18338;SDS011;9295;44.484;11.240;2022-07-29T06:18:21;10.33;;;6.67;;
18338;SDS011;9295;44.484;11.240;2022-07-29T06:20:50;14.87;;;6.47;;
18338;SDS011;9295;44.484;11.240;2022-07-29T06:23:19;9.50;;;6.70;;
18338;SDS011;9295;44.484;11.240;2022-07-29T06:25:48;16.67;;;6.60;;
18338;SDS011;9295;44.484;11.240;2022-07-29T06:28:18;14.47;;;7.00;;
18338;SDS011;9295;44.484;11.240;2022-07-29T06:30:46;9.77;;;6.53;;
18338;SDS011;9295;44.484;11.240;2022-07-29T06:33:18;8.97;;;6.30;;
18338;SDS011;9295;44.484;11.240;2022-07-29T06:35:49;12.23;;;6.90;;
18338;SDS011;9295;44.484;11.240;2022-07-29T06:38:20;13.30;;;6.67;;
18338;SDS011;9295;44.484;11.240;2022-07-29T06:41:00;11.07;;;6.60;;
18338;SDS011;9295;44.484;11.240;2022-07-29T06:43:33;9.83;;;6.70;;
18338;SDS011;9295;44.484;11.240;2022-07-29T06:46:17;12.23;;;6.23;;
18338;SDS011;9295;44.484;11.240;2022-07-29T06:48:47;14.67;;;6.60;;
18338;SDS011;9295;44.484;11.240;2022-07-29T06:51:18;11.13;;;6.43;;
18338;SDS011;9295;44.484;11.240;2022-07-29T06:53:49;11.63;;;5.80;;
18338;SDS011;9295;44.484;11.240;2022-07-29T06:56:28;10.53;;;5.60;;
18338;SDS011;9295;44.484;11.240;2022-07-29T06:58:57;7.90;;;5.23;;
18338;SDS011;9295;44.484;11.240;2022-07-29T07:01:27;12.43;;;5.50;;
18338;SDS011;9295;44.484;11.240;2022-07-29T07:03:57;10.93;;;5.67;;
18338;SDS011;9295;44.484;11.240;2022-07-29T07:06:30;8.47;;;5.53;;
18338;SDS011;9295;44.484;11.240;2022-07-29T07:08:59;11.90;;;5.63;;
18338;SDS011;9295;44.484;11.240;2022-07-29T07:11:27;7.33;;;5.10;;
18338;SDS011;9295;44.484;11.240;2022-07-29T07:13:58;10.57;;;6.53;;
18338;SDS011;9295;44.484;11.240;2022-07-29T07:16:29;14.27;;;5.70;;
18338;SDS011;9295;44.484;11.240;2022-07-29T07:18:59;13.37;;;5.40;;
18338;SDS011;9295;44.484;11.240;2022-07-29T07:21:28;10.67;;;5.50;;
18338;SDS011;9295;44.484;11.240;2022-07-29T07:23:58;10.60;;;5.47;;
18338;SDS011;9295;44.484;11.240;2022-07-29T07:26:27;9.27;;;6.10;;
18338;SDS011;9295;44.484;11.240;2022-07-29T07:28:56;8.40;;;4.77;;
18338;SDS011;9295;44.484;11.240;2022-07-29T07:31:25;8.33;;;5.30;;
18338;SDS011;9295;44.484;11.240;2022-07-29T07:33:54;14.10;;;5.97;;
18338;SDS011;9295;44.484;11.240;2022-07-29T07:36:25;13.30;;;5.77;;
18338;SDS011;9295;44.484;11.240;2022-07-29T07:38:55;10.70;;;5.87;;
18338;SDS011;9295;44.484;11.240;2022-07-29T07:41:24;10.67;;;5.93;;
18338;SDS011;9295;44.484;11.240;2022-07-29T07:43:58;11.53;;;6.17;;
18338;SDS011;9295;44.484;11.240;2022-07-29T07:46:27;15.10;;;6.20;;
18338;SDS011;9295;44.484;11.240;2022-07-29T07:48:55;13.77;;;5.60;;
18338;SDS011;9295;44.484;11.240;2022-07-29T07:51:24;10.93;;;5.40;;
18338;SDS011;9295;44.484;11.240;2022-07-29T07:53:53;12.47;;;5.73;;
18338;SDS011;9295;44.484;11.240;2022-07-29T07:56:23;10.67;;;6.07;;
18338;SDS011;9295;44.484;11.240;2022-07-29T07:58:56;11.80;;;5.97;;
18338;SDS011;9295;44.484;11.240;2022-07-29T08:01:24;12.23;;;6.80;;
18338;SDS011;9295;44.484;11.240;2022-07-29T08:03:53;11.50;;;5.77;;
18338;SDS011;9295;44.484;11.240;2022-07-29T08:06:22;10.00;;;5.80;;
18338;SDS011;9295;44.484;11.240;2022-07-29T08:08:51;11.60;;;6.70;;
18338;SDS011;9295;44.484;11.240;2022-07-29T08:11:23;10.63;;;6.60;;
18338;SDS011;9295;44.484;11.240;2022-07-29T08:13:53;16.20;;;6.40;;
18338;SDS011;9295;44.484;11.240;2022-07-29T08:16:22;10.93;;;5.83;;
18338;SDS011;9295;44.484;11.240;2022-07-29T08:18:58;10.77;;;5.80;;
18338;SDS011;9295;44.484;11.240;2022-07-29T08:21:27;15.20;;;7.20;;
18338;SDS011;9295;44.484;11.240;2022-07-29T08:23:55;12.97;;;6.30;;
18338;SDS011;9295;44.484;11.240;2022-07-29T08:26:58;15.40;;;5.57;;
18338;SDS011;9295;44.484;11.240;2022-07-29T08:29:27;14.47;;;5.47;;
18338;SDS011;9295;44.484;11.240;2022-07-29T08:31:55;18.03;;;7.10;;
18338;SDS011;9295;44.484;11.240;2022-07-29T08:34:24;8.33;;;5.53;;
18338;SDS011;9295;44.484;11.240;2022-07-29T08:36:54;11.13;;;5.90;;
18338;SDS011;9295;44.484;11.240;2022-07-29T08:39:23;14.27;;;6.17;;
18338;SDS011;9295;44.484;11.240;2022-07-29T08:41:52;16.77;;;6.10;;
18338;SDS011;9295;44.484;11.240;2022-07-29T08:44:24;13.83;;;5.83;;
18338;SDS011;9295;44.484;11.240;2022-07-29T08:46:56;21.33;;;6.70;;
18338;SDS011;9295;44.484;11.240;2022-07-29T08:49:25;21.63;;;5.83;;
18338;SDS011;9295;44.484;11.240;2022-07-29T08:51:54;15.13;;;6.13;;
18338;SDS011;9295;44.484;11.240;2022-07-29T08:54:25;11.77;;;6.00;;
18338;SDS011;9295;44.484;11.240;2022-07-29T08:56:55;11.83;;;6.10;;
18338;SDS011;9295;44.484;11.240;2022-07-29T08:59:26;19.00;;;7.00;;
18338;SDS011;9295;44.484;11.240;2022-07-29T09:01:57;10.03;;;7.17;;
18338;SDS011;9295;44.484;11.240;2022-07-29T09:04:30;18.80;;;6.20;;
18338;SDS011;9295;44.484;11.240;2022-07-29T09:07:00;11.60;;;6.30;;
18338;SDS011;9295;44.484;11.240;2022-07-29T09:09:33;10.33;;;5.77;;
18338;SDS011;9295;44.484;11.240;2022-07-29T09:12:02;13.63;;;6.77;;
18338;SDS011;9295;44.484;11.240;2022-07-29T09:14:34;14.17;;;6.30;;
18338;SDS011;9295;44.484;11.240;2022-07-29T09:17:02;12.10;;;5.53;;
18338;SDS011;9295;44.484;11.240;2022-07-29T09:19:32;11.60;;;5.60;;
18338;SDS011;9295;44.484;11.240;2022-07-29T09:22:05;12.03;;;6.23;;
18338;SDS011;9295;44.484;11.240;2022-07-29T09:24:37;10.70;;;5.13;;
18338;SDS011;9295;44.484;11.240;2022-07-29T09:27:11;10.03;;;5.10;;
18338;SDS011;9295;44.484;11.240;2022-07-29T09:29:56;13.13;;;5.20;;
18338;SDS011;9295;44.484;11.240;2022-07-29T09:32:25;12.63;;;6.80;;
18338;SDS011;9295;44.484;11.240;2022-07-29T09:35:13;7.40;;;5.00;;
18338;SDS011;9295;44.484;11.240;2022-07-29T09:37:43;13.80;;;5.60;;
18338;SDS011;9295;44.484;11.240;2022-07-29T09:40:13;7.43;;;5.00;;
18338;SDS011;9295;44.484;11.240;2022-07-29T09:42:46;9.33;;;5.60;;
18338;SDS011;9295;44.484;11.240;2022-07-29T09:45:26;11.23;;;5.40;;
18338;SDS011;9295;44.484;11.240;2022-07-29T09:47:56;8.77;;;5.87;;
18338;SDS011;9295;44.484;11.240;2022-07-29T09:50:36;14.33;;;6.37;;
18338;SDS011;9295;44.484;11.240;2022-07-29T09:53:06;7.30;;;5.57;;
18338;SDS011;9295;44.484;11.240;2022-07-29T09:55:46;7.10;;;5.03;;
18338;SDS011;9295;44.484;11.240;2022-07-29T09:58:17;14.93;;;5.57;;
18338;SDS011;9295;44.484;11.240;2022-07-29T10:00:49;9.83;;;6.07;;
18338;SDS011;9295;44.484;11.240;2022-07-29T10:03:19;13.50;;;5.67;;
18338;SDS011;9295;44.484;11.240;2022-07-29T10:06:03;11.30;;;5.60;;
18338;SDS011;9295;44.484;11.240;2022-07-29T10:08:35;7.13;;;4.83;;
18338;SDS011;9295;44.484;11.240;2022-07-29T10:11:11;10.53;;;5.33;;
18338;SDS011;9295;44.484;11.240;2022-07-29T10:13:41;11.03;;;5.47;;
18338;SDS011;9295;44.484;11.240;2022-07-29T10:16:12;9.87;;;4.90;;
18338;SDS011;9295;44.484;11.240;2022-07-29T10:18:42;17.43;;;5.90;;
18338;SDS011;9295;44.484;11.240;2022-07-29T10:21:13;10.73;;;5.87;;
18338;SDS011;9295;44.484;11.240;2022-07-29T10:24:01;9.00;;;5.20;;
18338;SDS011;9295;44.484;11.240;2022-07-29T10:26:30;11.10;;;5.67;;
18338;SDS011;9295;44.484;11.240;2022-07-29T10:28:58;8.63;;;5.60;;
18338;SDS011;9295;44.484;11.240;2022-07-29T10:31:31;11.50;;;5.13;;
18338;SDS011;9295;44.484;11.240;2022-07-29T10:34:11;9.77;;;5.00;;
18338;SDS011;9295;44.484;11.240;2022-07-29T10:36:52;17.53;;;5.60;;
18338;SDS011;9295;44.484;11.240;2022-07-29T10:39:35;9.33;;;5.37;;
18338;SDS011;9295;44.484;11.240;2022-07-29T10:42:17;10.70;;;6.17;;
18338;SDS011;9295;44.484;11.240;2022-07-29T10:45:00;9.60;;;5.00;;
18338;SDS011;9295;44.484;11.240;2022-07-29T10:47:33;8.83;;;5.60;;
18338;SDS011;9295;44.484;11.240;2022-07-29T10:50:02;11.17;;;5.97;;
18338;SDS011;9295;44.484;11.240;2022-07-29T10:55:30;8.40;;;5.53;;
18338;SDS011;9295;44.484;11.240;2022-07-29T10:58:13;12.90;;;5.53;;
18338;SDS011;9295;44.484;11.240;2022-07-29T11:00:45;11.20;;;5.70;;
18338;SDS011;9295;44.484;11.240;2022-07-29T11:06:23;18.87;;;6.63;;
18338;SDS011;9295;44.484;11.240;2022-07-29T11:09:14;10.50;;;4.90;;
18338;SDS011;9295;44.484;11.240;2022-07-29T11:11:48;10.83;;;5.47;;
18338;SDS011;9295;44.484;11.240;2022-07-29T11:14:19;8.80;;;5.40;;
18338;SDS011;9295;44.484;11.240;2022-07-29T11:17:23;12.57;;;5.00;;
18338;SDS011;9295;44.484;11.240;2022-07-29T11:19:53;9.83;;;5.27;;
18338;SDS011;9295;44.484;11.240;2022-07-29T11:23:19;9.03;;;5.23;;
18338;SDS011;9295;44.484;11.240;2022-07-29T11:28:50;9.73;;;5.67;;
18338;SDS011;9295;44.484;11.240;2022-07-29T11:31:31;10.07;;;5.33;;
18338;SDS011;9295;44.484;11.240;2022-07-29T11:34:19;8.30;;;4.70;;
18338;SDS011;9295;44.484;11.240;2022-07-29T11:37:17;9.63;;;4.93;;
18338;SDS011;9295;44.484;11.240;2022-07-29T11:42:47;10.03;;;5.43;;
18338;SDS011;9295;44.484;11.240;2022-07-29T11:45:22;15.27;;;5.53;;
18338;SDS011;9295;44.484;11.240;2022-07-29T11:48:16;7.40;;;4.40;;
18338;SDS011;9295;44.484;11.240;2022-07-29T11:51:09;11.90;;;4.80;;
18338;SDS011;9295;44.484;11.240;2022-07-29T11:53:40;8.33;;;4.63;;
18338;SDS011;9295;44.484;11.240;2022-07-29T11:56:18;12.17;;;4.97;;
18338;SDS011;9295;44.484;11.240;2022-07-29T11:59:00;10.90;;;5.27;;
18338;SDS011;9295;44.484;11.240;2022-07-29T12:01:52;6.73;;;4.40;;
18338;SDS011;9295;44.484;11.240;2022-07-29T12:04:47;6.03;;;3.87;;
18338;SDS011;9295;44.484;11.240;2022-07-29T12:07:17;10.80;;;4.70;;
18338;SDS011;9295;44.484;11.240;2022-07-29T12:09:50;8.33;;;3.90;;
18338;SDS011;9295;44.484;11.240;2022-07-29T12:12:23;8.00;;;4.80;;
18338;SDS011;9295;44.484;11.240;2022-07-29T12:14:53;9.40;;;4.60;;
18338;SDS011;9295;44.484;11.240;2022-07-29T12:17:26;8.33;;;3.87;;
18338;SDS011;9295;44.484;11.240;2022-07-29T12:19:58;9.00;;;5.27;;
18338;SDS011;9295;44.484;11.240;2022-07-29T12:22:30;6.23;;;4.30;;
18338;SDS011;9295;44.484;11.240;2022-07-29T12:25:07;10.07;;;4.70;;
18338;SDS011;9295;44.484;11.240;2022-07-29T12:27:58;6.70;;;4.50;;
18338;SDS011;9295;44.484;11.240;2022-07-29T12:33:22;14.40;;;4.90;;
18338;SDS011;9295;44.484;11.240;2022-07-29T12:35:56;6.80;;;4.63;;
18338;SDS011;9295;44.484;11.240;2022-07-29T12:38:33;11.40;;;4.40;;
18338;SDS011;9295;44.484;11.240;2022-07-29T12:41:09;11.10;;;4.57;;
18338;SDS011;9295;44.484;11.240;2022-07-29T12:43:47;10.93;;;4.97;;
18338;SDS011;9295;44.484;11.240;2022-07-29T12:46:22;5.60;;;4.10;;
18338;SDS011;9295;44.484;11.240;2022-07-29T12:48:52;11.57;;;4.63;;
18338;SDS011;9295;44.484;11.240;2022-07-29T12:51:28;6.97;;;4.07;;
18338;SDS011;9295;44.484;11.240;2022-07-29T12:54:05;11.80;;;4.70;;
18338;SDS011;9295;44.484;11.240;2022-07-29T12:56:36;9.40;;;4.50;;
18338;SDS011;9295;44.484;11.240;2022-07-29T12:59:16;7.20;;;4.90;;
18338;SDS011;9295;44.484;11.240;2022-07-29T13:01:46;7.87;;;5.00;;
18338;SDS011;9295;44.484;11.240;2022-07-29T13:04:26;14.93;;;4.87;;
18338;SDS011;9295;44.484;11.240;2022-07-29T13:06:59;11.43;;;4.37;;
18338;SDS011;9295;44.484;11.240;2022-07-29T13:09:37;10.80;;;4.40;;
18338;SDS011;9295;44.484;11.240;2022-07-29T13:12:08;7.43;;;4.10;;
18338;SDS011;9295;44.484;11.240;2022-07-29T13:14:39;11.47;;;4.90;;
18338;SDS011;9295;44.484;11.240;2022-07-29T13:17:09;10.23;;;4.40;;
18338;SDS011;9295;44.484;11.240;2022-07-29T13:19:40;8.33;;;4.30;;
18338;SDS011;9295;44.484;11.240;2022-07-29T13:22:10;11.30;;;4.33;;
18338;SDS011;9295;44.484;11.240;2022-07-29T13:24:46;7.10;;;4.50;;
18338;SDS011;9295;44.484;11.240;2022-07-29T13:27:17;13.30;;;4.27;;
18338;SDS011;9295;44.484;11.240;2022-07-29T13:29:50;8.10;;;4.33;;
18338;SDS011;9295;44.484;11.240;2022-07-29T13:32:21;7.27;;;4.40;;
18338;SDS011;9295;44.484;11.240;2022-07-29T13:34:54;6.07;;;4.23;;
18338;SDS011;9295;44.484;11.240;2022-07-29T13:37:24;6.10;;;4.40;;
18338;SDS011;9295;44.484;11.240;2022-07-29T13:39:58;9.03;;;4.80;;
18338;SDS011;9295;44.484;11.240;2022-07-29T13:42:28;10.40;;;4.57;;
18338;SDS011;9295;44.484;11.240;2022-07-29T13:44:57;7.30;;;4.50;;
18338;SDS011;9295;44.484;11.240;2022-07-29T13:47:26;10.10;;;4.37;;
18338;SDS011;9295;44.484;11.240;2022-07-29T13:49:58;8.30;;;4.40;;
18338;SDS011;9295;44.484;11.240;2022-07-29T13:52:27;9.30;;;4.87;;
18338;SDS011;9295;44.484;11.240;2022-07-29T13:54:59;9.27;;;4.53;;
18338;SDS011;9295;44.484;11.240;2022-07-29T13:57:29;8.70;;;4.20;;
18338;SDS011;9295;44.484;11.240;2022-07-29T13:59:59;7.00;;;4.80;;
18338;SDS011;9295;44.484;11.240;2022-07-29T14:02:33;15.40;;;4.70;;
18338;SDS011;9295;44.484;11.240;2022-07-29T14:05:03;8.10;;;4.53;;
18338;SDS011;9295;44.484;11.240;2022-07-29T14:07:34;8.80;;;5.23;;
18338;SDS011;9295;44.484;11.240;2022-07-29T14:10:03;8.53;;;4.30;;
18338;SDS011;9295;44.484;11.240;2022-07-29T14:12:34;6.17;;;4.80;;
18338;SDS011;9295;44.484;11.240;2022-07-29T14:15:03;6.67;;;4.73;;
18338;SDS011;9295;44.484;11.240;2022-07-29T14:17:32;9.70;;;4.27;;
18338;SDS011;9295;44.484;11.240;2022-07-29T14:20:01;6.57;;;4.37;;
18338;SDS011;9295;44.484;11.240;2022-07-29T14:22:30;8.87;;;5.07;;
18338;SDS011;9295;44.484;11.240;2022-07-29T14:25:07;11.03;;;4.50;;
18338;SDS011;9295;44.484;11.240;2022-07-29T14:27:42;8.37;;;4.47;;
18338;SDS011;9295;44.484;11.240;2022-07-29T14:30:12;6.13;;;4.17;;
18338;SDS011;9295;44.484;11.240;2022-07-29T14:32:41;7.43;;;4.50;;
18338;SDS011;9295;44.484;11.240;2022-07-29T14:35:09;10.30;;;4.50;;
18338;SDS011;9295;44.484;11.240;2022-07-29T14:37:38;7.73;;;4.43;;
18338;SDS011;9295;44.484;11.240;2022-07-29T14:40:07;9.40;;;5.20;;
18338;SDS011;9295;44.484;11.240;2022-07-29T14:42:37;8.23;;;5.37;;
18338;SDS011;9295;44.484;11.240;2022-07-29T14:45:09;9.20;;;4.80;;
18338;SDS011;9295;44.484;11.240;2022-07-29T14:47:37;6.60;;;4.87;;
18338;SDS011;9295;44.484;11.240;2022-07-29T14:50:07;5.80;;;4.37;;
18338;SDS011;9295;44.484;11.240;2022-07-29T14:52:36;7.73;;;4.83;;
18338;SDS011;9295;44.484;11.240;2022-07-29T14:55:05;15.50;;;5.67;;
18338;SDS011;9295;44.484;11.240;2022-07-29T14:57:45;8.63;;;4.57;;
18338;SDS011;9295;44.484;11.240;2022-07-29T15:00:16;7.43;;;4.70;;
18338;SDS011;9295;44.484;11.240;2022-07-29T15:02:45;7.23;;;5.13;;
18338;SDS011;9295;44.484;11.240;2022-07-29T15:05:29;15.13;;;5.90;;
18338;SDS011;9295;44.484;11.240;2022-07-29T15:07:58;12.77;;;5.70;;
18338;SDS011;9295;44.484;11.240;2022-07-29T15:10:27;9.80;;;5.37;;
18338;SDS011;9295;44.484;11.240;2022-07-29T15:12:56;10.60;;;5.57;;
18338;SDS011;9295;44.484;11.240;2022-07-29T15:15:26;10.80;;;5.70;;
18338;SDS011;9295;44.484;11.240;2022-07-29T15:17:57;18.33;;;6.17;;
18338;SDS011;9295;44.484;11.240;2022-07-29T15:20:26;8.50;;;5.17;;
18338;SDS011;9295;44.484;11.240;2022-07-29T15:22:57;16.13;;;5.27;;
18338;SDS011;9295;44.484;11.240;2022-07-29T15:25:25;7.07;;;5.00;;
18338;SDS011;9295;44.484;11.240;2022-07-29T15:27:54;10.50;;;5.40;;
18338;SDS011;9295;44.484;11.240;2022-07-29T15:30:28;10.87;;;4.73;;